sensor_id;sensor_type;location;lat;lon;timestamp;P1;durP1;ratioP1;P2;durP2;ratioP2
42616;SDS011;28250;52.320;0.360;2024-03-02T00:01:30;1.25;;;0.80;;
42616;SDS011;28250;52.320;0.360;2024-03-02T00:03:56;3.83;;;0.80;;
42616;SDS011;28250;52.320;0.360;2024-03-02T00:06:23;2.20;;;0.70;;
42616;SDS011;28250;52.320;0.360;2024-03-02T00:08:49;1.90;;;0.83;;
42616;SDS011;28250;52.320;0.360;2024-03-02T00:11:16;3.78;;;0.80;;
42616;SDS011;28250;52.320;0.360;2024-03-02T00:13:44;2.35;;;1.00;;
42616;SDS011;28250;52.320;0.360;2024-03-02T00:16:12;2.22;;;0.75;;
42616;SDS011;28250;52.320;0.360;2024-03-02T00:18:38;2.05;;;1.05;;
42616;SDS011;28250;52.320;0.360;2024-03-02T00:21:06;1.83;;;0.90;;
42616;SDS011;28250;52.320;0.360;2024-03-02T00:23:35;3.50;;;0.90;;
42616;SDS011;28250;52.320;0.360;2024-03-02T00:26:02;1.05;;;0.63;;
42616;SDS011;28250;52.320;0.360;2024-03-02T00:28:33;2.35;;;1.10;;
42616;SDS011;28250;52.320;0.360;2024-03-02T00:31:02;2.03;;;0.63;;
42616;SDS011;28250;52.320;0.360;2024-03-02T00:36:02;1.85;;;1.05;;
42616;SDS011;28250;52.320;0.360;2024-03-02T00:38:30;1.85;;;1.05;;
42616;SDS011;28250;52.320;0.360;2024-03-02T00:40:59;3.20;;;1.08;;
42616;SDS011;28250;52.320;0.360;2024-03-02T00:46:08;1.25;;;0.60;;
42616;SDS011;28250;52.320;0.360;2024-03-02T00:48:39;4.50;;;1.05;;
42616;SDS011;28250;52.320;0.360;2024-03-02T00:51:13;1.20;;;0.90;;
42616;SDS011;28250;52.320;0.360;2024-03-02T00:53:40;0.97;;;0.70;;
42616;SDS011;28250;52.320;0.360;2024-03-02T00:56:09;4.10;;;0.80;;
42616;SDS011;28250;52.320;0.360;2024-03-02T00:58:38;2.83;;;0.95;;
42616;SDS011;28250;52.320;0.360;2024-03-02T01:01:05;1.63;;;0.77;;
42616;SDS011;28250;52.320;0.360;2024-03-02T01:08:26;1.63;;;0.70;;
42616;SDS011;28250;52.320;0.360;2024-03-02T01:10:52;2.23;;;0.97;;
42616;SDS011;28250;52.320;0.360;2024-03-02T01:13:21;1.83;;;0.90;;
42616;SDS011;28250;52.320;0.360;2024-03-02T01:15:49;1.92;;;0.70;;
42616;SDS011;28250;52.320;0.360;2024-03-02T01:18:16;3.17;;;0.88;;
42616;SDS011;28250;52.320;0.360;2024-03-02T01:20:42;1.98;;;1.30;;
42616;SDS011;28250;52.320;0.360;2024-03-02T01:23:09;1.80;;;0.90;;
42616;SDS011;28250;52.320;0.360;2024-03-02T01:25:35;4.80;;;1.13;;
42616;SDS011;28250;52.320;0.360;2024-03-02T01:28:02;2.22;;;1.17;;
42616;SDS011;28250;52.320;0.360;2024-03-02T01:32:55;3.57;;;1.40;;
42616;SDS011;28250;52.320;0.360;2024-03-02T01:35:24;3.22;;;1.20;;
42616;SDS011;28250;52.320;0.360;2024-03-02T01:37:52;4.40;;;1.20;;
42616;SDS011;28250;52.320;0.360;2024-03-02T01:40:19;4.80;;;1.30;;
42616;SDS011;28250;52.320;0.360;2024-03-02T01:42:45;2.13;;;1.20;;
42616;SDS011;28250;52.320;0.360;2024-03-02T01:45:12;5.13;;;1.37;;
42616;SDS011;28250;52.320;0.360;2024-03-02T01:47:39;2.20;;;1.30;;
42616;SDS011;28250;52.320;0.360;2024-03-02T01:50:05;2.85;;;1.10;;
42616;SDS011;28250;52.320;0.360;2024-03-02T01:52:33;3.63;;;1.20;;
42616;SDS011;28250;52.320;0.360;2024-03-02T01:55:00;2.72;;;0.98;;
42616;SDS011;28250;52.320;0.360;2024-03-02T01:57:27;4.63;;;1.60;;
42616;SDS011;28250;52.320;0.360;2024-03-02T01:59:53;2.58;;;1.35;;
42616;SDS011;28250;52.320;0.360;2024-03-02T02:02:20;2.60;;;1.48;;
42616;SDS011;28250;52.320;0.360;2024-03-02T02:04:47;2.97;;;1.33;;
42616;SDS011;28250;52.320;0.360;2024-03-02T02:07:13;3.80;;;1.45;;
42616;SDS011;28250;52.320;0.360;2024-03-02T02:09:41;1.73;;;1.10;;
42616;SDS011;28250;52.320;0.360;2024-03-02T02:12:09;2.85;;;1.50;;
42616;SDS011;28250;52.320;0.360;2024-03-02T02:14:39;5.13;;;1.70;;
42616;SDS011;28250;52.320;0.360;2024-03-02T02:17:14;6.32;;;1.25;;
42616;SDS011;28250;52.320;0.360;2024-03-02T02:19:41;7.73;;;2.00;;
42616;SDS011;28250;52.320;0.360;2024-03-02T02:24:35;4.22;;;1.15;;
42616;SDS011;28250;52.320;0.360;2024-03-02T02:27:05;3.45;;;1.13;;
42616;SDS011;28250;52.320;0.360;2024-03-02T02:29:32;3.58;;;1.10;;
42616;SDS011;28250;52.320;0.360;2024-03-02T02:31:58;2.13;;;1.20;;
42616;SDS011;28250;52.320;0.360;2024-03-02T02:34:25;4.45;;;1.33;;
42616;SDS011;28250;52.320;0.360;2024-03-02T02:36:52;3.78;;;0.82;;
42616;SDS011;28250;52.320;0.360;2024-03-02T02:39:20;3.22;;;1.40;;
42616;SDS011;28250;52.320;0.360;2024-03-02T02:41:48;3.13;;;1.20;;
42616;SDS011;28250;52.320;0.360;2024-03-02T02:44:15;3.47;;;0.77;;
42616;SDS011;28250;52.320;0.360;2024-03-02T02:46:41;6.85;;;0.80;;
42616;SDS011;28250;52.320;0.360;2024-03-02T02:49:08;3.27;;;0.80;;
42616;SDS011;28250;52.320;0.360;2024-03-02T02:51:34;3.33;;;0.82;;
42616;SDS011;28250;52.320;0.360;2024-03-02T02:54:01;3.17;;;0.60;;
42616;SDS011;28250;52.320;0.360;2024-03-02T02:56:27;3.17;;;0.80;;
42616;SDS011;28250;52.320;0.360;2024-03-02T02:58:54;3.35;;;0.95;;
42616;SDS011;28250;52.320;0.360;2024-03-02T03:01:20;2.70;;;1.02;;
42616;SDS011;28250;52.320;0.360;2024-03-02T03:03:47;2.35;;;0.57;;
42616;SDS011;28250;52.320;0.360;2024-03-02T03:06:13;2.30;;;0.60;;
42616;SDS011;28250;52.320;0.360;2024-03-02T03:08:40;2.35;;;0.70;;
42616;SDS011;28250;52.320;0.360;2024-03-02T03:11:06;1.53;;;0.60;;
42616;SDS011;28250;52.320;0.360;2024-03-02T03:13:33;2.22;;;0.55;;
42616;SDS011;28250;52.320;0.360;2024-03-02T03:16:00;2.95;;;0.82;;
42616;SDS011;28250;52.320;0.360;2024-03-02T03:18:26;1.80;;;0.68;;
42616;SDS011;28250;52.320;0.360;2024-03-02T03:20:53;1.90;;;0.57;;
42616;SDS011;28250;52.320;0.360;2024-03-02T03:23:19;2.47;;;0.63;;
42616;SDS011;28250;52.320;0.360;2024-03-02T03:25:46;1.00;;;0.60;;
42616;SDS011;28250;52.320;0.360;2024-03-02T03:28:12;2.33;;;0.85;;
42616;SDS011;28250;52.320;0.360;2024-03-02T03:30:39;4.25;;;0.73;;
42616;SDS011;28250;52.320;0.360;2024-03-02T03:33:06;1.40;;;0.60;;
42616;SDS011;28250;52.320;0.360;2024-03-02T03:35:33;3.63;;;0.68;;
42616;SDS011;28250;52.320;0.360;2024-03-02T03:38:00;3.67;;;0.80;;
42616;SDS011;28250;52.320;0.360;2024-03-02T03:40:26;5.13;;;0.80;;
42616;SDS011;28250;52.320;0.360;2024-03-02T03:42:53;2.17;;;0.60;;
42616;SDS011;28250;52.320;0.360;2024-03-02T03:45:21;4.00;;;0.60;;
42616;SDS011;28250;52.320;0.360;2024-03-02T03:47:48;2.08;;;0.45;;
42616;SDS011;28250;52.320;0.360;2024-03-02T03:50:14;2.42;;;0.50;;
42616;SDS011;28250;52.320;0.360;2024-03-02T03:52:41;2.20;;;0.50;;
42616;SDS011;28250;52.320;0.360;2024-03-02T03:55:07;4.53;;;0.70;;
42616;SDS011;28250;52.320;0.360;2024-03-02T03:57:34;1.83;;;0.50;;
42616;SDS011;28250;52.320;0.360;2024-03-02T04:00:01;4.40;;;0.60;;
42616;SDS011;28250;52.320;0.360;2024-03-02T04:02:37;5.00;;;0.73;;
42616;SDS011;28250;52.320;0.360;2024-03-02T04:05:04;3.90;;;0.85;;
42616;SDS011;28250;52.320;0.360;2024-03-02T04:07:35;2.38;;;0.50;;
42616;SDS011;28250;52.320;0.360;2024-03-02T04:10:07;5.20;;;0.93;;
42616;SDS011;28250;52.320;0.360;2024-03-02T04:12:36;3.05;;;0.52;;
42616;SDS011;28250;52.320;0.360;2024-03-02T04:15:03;3.05;;;0.77;;
42616;SDS011;28250;52.320;0.360;2024-03-02T04:17:32;3.20;;;0.98;;
42616;SDS011;28250;52.320;0.360;2024-03-02T04:20:01;4.88;;;0.80;;
42616;SDS011;28250;52.320;0.360;2024-03-02T04:22:30;3.88;;;0.60;;
42616;SDS011;28250;52.320;0.360;2024-03-02T04:24:58;3.13;;;0.57;;
42616;SDS011;28250;52.320;0.360;2024-03-02T04:27:26;3.88;;;0.73;;
42616;SDS011;28250;52.320;0.360;2024-03-02T04:29:52;4.68;;;1.02;;
42616;SDS011;28250;52.320;0.360;2024-03-02T04:32:19;3.90;;;0.98;;
42616;SDS011;28250;52.320;0.360;2024-03-02T04:34:45;3.93;;;0.90;;
42616;SDS011;28250;52.320;0.360;2024-03-02T04:37:12;5.63;;;1.00;;
42616;SDS011;28250;52.320;0.360;2024-03-02T04:42:06;3.13;;;0.65;;
42616;SDS011;28250;52.320;0.360;2024-03-02T04:44:32;3.72;;;0.80;;
42616;SDS011;28250;52.320;0.360;2024-03-02T04:46:59;2.75;;;0.90;;
42616;SDS011;28250;52.320;0.360;2024-03-02T04:49:27;4.25;;;0.98;;
42616;SDS011;28250;52.320;0.360;2024-03-02T04:51:53;5.03;;;0.90;;
42616;SDS011;28250;52.320;0.360;2024-03-02T04:54:19;4.13;;;0.65;;
42616;SDS011;28250;52.320;0.360;2024-03-02T04:56:46;5.93;;;1.00;;
42616;SDS011;28250;52.320;0.360;2024-03-02T04:59:17;4.65;;;0.73;;
42616;SDS011;28250;52.320;0.360;2024-03-02T05:01:44;3.10;;;0.90;;
42616;SDS011;28250;52.320;0.360;2024-03-02T05:04:11;3.95;;;0.77;;
42616;SDS011;28250;52.320;0.360;2024-03-02T05:06:38;6.88;;;0.93;;
42616;SDS011;28250;52.320;0.360;2024-03-02T05:09:06;4.72;;;0.80;;
42616;SDS011;28250;52.320;0.360;2024-03-02T05:11:34;7.22;;;1.00;;
42616;SDS011;28250;52.320;0.360;2024-03-02T05:14:05;5.63;;;0.95;;
42616;SDS011;28250;52.320;0.360;2024-03-02T05:16:33;4.88;;;1.15;;
42616;SDS011;28250;52.320;0.360;2024-03-02T05:19:01;4.93;;;1.00;;
42616;SDS011;28250;52.320;0.360;2024-03-02T05:21:27;6.05;;;1.10;;
42616;SDS011;28250;52.320;0.360;2024-03-02T05:23:53;4.97;;;1.52;;
42616;SDS011;28250;52.320;0.360;2024-03-02T05:26:20;7.05;;;1.70;;
42616;SDS011;28250;52.320;0.360;2024-03-02T05:28:46;5.95;;;1.00;;
42616;SDS011;28250;52.320;0.360;2024-03-02T05:31:14;4.30;;;1.15;;
42616;SDS011;28250;52.320;0.360;2024-03-02T05:33:42;4.90;;;1.17;;
42616;SDS011;28250;52.320;0.360;2024-03-02T05:36:09;5.65;;;0.88;;
42616;SDS011;28250;52.320;0.360;2024-03-02T05:38:35;6.60;;;0.80;;
42616;SDS011;28250;52.320;0.360;2024-03-02T05:41:02;5.97;;;1.33;;
42616;SDS011;28250;52.320;0.360;2024-03-02T05:43:29;5.93;;;0.80;;
42616;SDS011;28250;52.320;0.360;2024-03-02T05:45:55;8.05;;;1.15;;
42616;SDS011;28250;52.320;0.360;2024-03-02T05:48:21;3.70;;;1.10;;
42616;SDS011;28250;52.320;0.360;2024-03-02T05:50:48;5.32;;;0.95;;
42616;SDS011;28250;52.320;0.360;2024-03-02T05:53:14;3.30;;;0.77;;
42616;SDS011;28250;52.320;0.360;2024-03-02T05:55:41;8.52;;;1.40;;
42616;SDS011;28250;52.320;0.360;2024-03-02T05:58:07;7.78;;;1.02;;
42616;SDS011;28250;52.320;0.360;2024-03-02T06:00:53;8.20;;;1.88;;
42616;SDS011;28250;52.320;0.360;2024-03-02T06:03:20;4.15;;;1.08;;
42616;SDS011;28250;52.320;0.360;2024-03-02T06:05:46;4.18;;;0.98;;
42616;SDS011;28250;52.320;0.360;2024-03-02T06:08:14;4.10;;;1.00;;
42616;SDS011;28250;52.320;0.360;2024-03-02T06:10:41;9.05;;;0.80;;
42616;SDS011;28250;52.320;0.360;2024-03-02T06:13:09;9.93;;;1.13;;
42616;SDS011;28250;52.320;0.360;2024-03-02T06:15:35;5.35;;;0.95;;
42616;SDS011;28250;52.320;0.360;2024-03-02T06:18:02;5.78;;;0.80;;
42616;SDS011;28250;52.320;0.360;2024-03-02T06:20:28;6.97;;;1.20;;
42616;SDS011;28250;52.320;0.360;2024-03-02T06:22:58;3.03;;;1.08;;
42616;SDS011;28250;52.320;0.360;2024-03-02T06:25:24;4.43;;;0.93;;
42616;SDS011;28250;52.320;0.360;2024-03-02T06:27:51;3.13;;;0.80;;
42616;SDS011;28250;52.320;0.360;2024-03-02T06:30:17;7.25;;;1.73;;
42616;SDS011;28250;52.320;0.360;2024-03-02T06:32:43;6.47;;;1.10;;
42616;SDS011;28250;52.320;0.360;2024-03-02T06:35:10;6.80;;;1.08;;
42616;SDS011;28250;52.320;0.360;2024-03-02T06:40:06;11.10;;;0.95;;
42616;SDS011;28250;52.320;0.360;2024-03-02T06:42:33;3.90;;;1.17;;
42616;SDS011;28250;52.320;0.360;2024-03-02T06:45:01;4.68;;;1.00;;
42616;SDS011;28250;52.320;0.360;2024-03-02T06:47:30;5.15;;;1.15;;
42616;SDS011;28250;52.320;0.360;2024-03-02T06:49:56;3.35;;;1.38;;
42616;SDS011;28250;52.320;0.360;2024-03-02T06:52:24;3.45;;;1.20;;
42616;SDS011;28250;52.320;0.360;2024-03-02T06:54:50;5.70;;;1.15;;
42616;SDS011;28250;52.320;0.360;2024-03-02T06:57:17;6.82;;;1.30;;
42616;SDS011;28250;52.320;0.360;2024-03-02T06:59:45;4.57;;;0.90;;
42616;SDS011;28250;52.320;0.360;2024-03-02T07:02:12;8.52;;;1.58;;
42616;SDS011;28250;52.320;0.360;2024-03-02T07:04:38;5.55;;;1.58;;
42616;SDS011;28250;52.320;0.360;2024-03-02T07:07:05;8.25;;;1.50;;
42616;SDS011;28250;52.320;0.360;2024-03-02T07:09:32;4.93;;;1.15;;
42616;SDS011;28250;52.320;0.360;2024-03-02T07:11:58;7.53;;;1.60;;
42616;SDS011;28250;52.320;0.360;2024-03-02T07:14:24;6.93;;;1.30;;
42616;SDS011;28250;52.320;0.360;2024-03-02T07:17:11;9.03;;;1.70;;
42616;SDS011;28250;52.320;0.360;2024-03-02T07:19:38;7.72;;;1.42;;
42616;SDS011;28250;52.320;0.360;2024-03-02T07:22:06;4.95;;;1.17;;
42616;SDS011;28250;52.320;0.360;2024-03-02T07:24:41;6.97;;;1.23;;
42616;SDS011;28250;52.320;0.360;2024-03-02T07:27:09;6.13;;;1.30;;
42616;SDS011;28250;52.320;0.360;2024-03-02T07:29:36;9.40;;;2.15;;
42616;SDS011;28250;52.320;0.360;2024-03-02T07:32:02;10.95;;;1.13;;
42616;SDS011;28250;52.320;0.360;2024-03-02T07:34:29;4.55;;;1.33;;
42616;SDS011;28250;52.320;0.360;2024-03-02T07:36:56;8.30;;;1.10;;
42616;SDS011;28250;52.320;0.360;2024-03-02T07:39:22;6.85;;;1.40;;
42616;SDS011;28250;52.320;0.360;2024-03-02T07:41:49;7.90;;;2.20;;
42616;SDS011;28250;52.320;0.360;2024-03-02T07:44:16;4.67;;;0.90;;
42616;SDS011;28250;52.320;0.360;2024-03-02T07:46:44;8.57;;;1.50;;
42616;SDS011;28250;52.320;0.360;2024-03-02T07:49:12;5.22;;;1.25;;
42616;SDS011;28250;52.320;0.360;2024-03-02T07:54:05;5.80;;;1.33;;
42616;SDS011;28250;52.320;0.360;2024-03-02T07:56:32;6.85;;;1.20;;
42616;SDS011;28250;52.320;0.360;2024-03-02T07:58:59;9.20;;;1.42;;
42616;SDS011;28250;52.320;0.360;2024-03-02T08:01:27;6.50;;;1.08;;
42616;SDS011;28250;52.320;0.360;2024-03-02T08:03:59;7.38;;;1.30;;
42616;SDS011;28250;52.320;0.360;2024-03-02T08:06:29;9.02;;;1.40;;
42616;SDS011;28250;52.320;0.360;2024-03-02T08:08:56;5.22;;;1.15;;
42616;SDS011;28250;52.320;0.360;2024-03-02T08:11:24;8.95;;;1.70;;
42616;SDS011;28250;52.320;0.360;2024-03-02T08:13:50;5.53;;;1.00;;
42616;SDS011;28250;52.320;0.360;2024-03-02T08:16:19;6.78;;;1.63;;
42616;SDS011;28250;52.320;0.360;2024-03-02T08:21:13;9.30;;;1.50;;
42616;SDS011;28250;52.320;0.360;2024-03-02T08:23:40;8.02;;;1.30;;
42616;SDS011;28250;52.320;0.360;2024-03-02T08:26:08;6.38;;;1.08;;
42616;SDS011;28250;52.320;0.360;2024-03-02T08:28:35;7.72;;;1.02;;
42616;SDS011;28250;52.320;0.360;2024-03-02T08:31:03;5.80;;;1.08;;
42616;SDS011;28250;52.320;0.360;2024-03-02T08:33:30;13.65;;;1.50;;
42616;SDS011;28250;52.320;0.360;2024-03-02T08:35:56;9.82;;;1.80;;
42616;SDS011;28250;52.320;0.360;2024-03-02T08:38:23;6.07;;;1.13;;
42616;SDS011;28250;52.320;0.360;2024-03-02T08:40:49;8.03;;;1.07;;
42616;SDS011;28250;52.320;0.360;2024-03-02T08:43:16;8.55;;;0.93;;
42616;SDS011;28250;52.320;0.360;2024-03-02T08:45:42;7.93;;;1.40;;
42616;SDS011;28250;52.320;0.360;2024-03-02T08:48:09;8.07;;;1.23;;
42616;SDS011;28250;52.320;0.360;2024-03-02T08:50:36;9.55;;;1.33;;
42616;SDS011;28250;52.320;0.360;2024-03-02T08:53:03;7.53;;;1.35;;
42616;SDS011;28250;52.320;0.360;2024-03-02T08:55:30;6.10;;;1.23;;
42616;SDS011;28250;52.320;0.360;2024-03-02T08:57:56;7.10;;;1.30;;
42616;SDS011;28250;52.320;0.360;2024-03-02T09:00:23;11.07;;;1.53;;
42616;SDS011;28250;52.320;0.360;2024-03-02T09:02:50;6.88;;;1.42;;
42616;SDS011;28250;52.320;0.360;2024-03-02T09:05:17;10.93;;;1.83;;
42616;SDS011;28250;52.320;0.360;2024-03-02T09:07:43;7.32;;;1.10;;
42616;SDS011;28250;52.320;0.360;2024-03-02T09:10:10;6.15;;;0.80;;
42616;SDS011;28250;52.320;0.360;2024-03-02T09:12:36;6.57;;;1.03;;
42616;SDS011;28250;52.320;0.360;2024-03-02T09:15:04;6.25;;;0.93;;
42616;SDS011;28250;52.320;0.360;2024-03-02T09:17:31;9.98;;;1.17;;
42616;SDS011;28250;52.320;0.360;2024-03-02T09:19:58;7.07;;;1.30;;
42616;SDS011;28250;52.320;0.360;2024-03-02T09:22:25;7.03;;;1.15;;
42616;SDS011;28250;52.320;0.360;2024-03-02T09:24:51;8.50;;;1.15;;
42616;SDS011;28250;52.320;0.360;2024-03-02T09:27:17;6.30;;;0.85;;
42616;SDS011;28250;52.320;0.360;2024-03-02T09:29:44;6.18;;;1.13;;
42616;SDS011;28250;52.320;0.360;2024-03-02T09:32:12;4.55;;;0.98;;
42616;SDS011;28250;52.320;0.360;2024-03-02T09:34:39;4.68;;;1.05;;
42616;SDS011;28250;52.320;0.360;2024-03-02T09:37:06;8.13;;;1.20;;
42616;SDS011;28250;52.320;0.360;2024-03-02T09:39:33;13.43;;;1.50;;
42616;SDS011;28250;52.320;0.360;2024-03-02T09:42:00;8.18;;;1.00;;
42616;SDS011;28250;52.320;0.360;2024-03-02T09:44:26;7.27;;;1.17;;
42616;SDS011;28250;52.320;0.360;2024-03-02T09:46:53;3.70;;;1.20;;
42616;SDS011;28250;52.320;0.360;2024-03-02T09:49:19;9.25;;;1.40;;
42616;SDS011;28250;52.320;0.360;2024-03-02T09:51:47;7.68;;;1.42;;
42616;SDS011;28250;52.320;0.360;2024-03-02T09:54:15;5.22;;;0.82;;
42616;SDS011;28250;52.320;0.360;2024-03-02T09:56:43;9.85;;;1.20;;
42616;SDS011;28250;52.320;0.360;2024-03-02T09:59:10;9.82;;;1.30;;
42616;SDS011;28250;52.320;0.360;2024-03-02T10:01:38;7.43;;;1.10;;
42616;SDS011;28250;52.320;0.360;2024-03-02T10:04:05;4.82;;;1.25;;
42616;SDS011;28250;52.320;0.360;2024-03-02T10:06:31;3.88;;;1.40;;
42616;SDS011;28250;52.320;0.360;2024-03-02T10:08:58;11.13;;;1.58;;
42616;SDS011;28250;52.320;0.360;2024-03-02T10:11:26;13.32;;;1.45;;
42616;SDS011;28250;52.320;0.360;2024-03-02T10:14:15;2.55;;;0.70;;
42616;SDS011;28250;52.320;0.360;2024-03-02T10:16:42;7.53;;;1.17;;
42616;SDS011;28250;52.320;0.360;2024-03-02T10:19:25;6.53;;;1.20;;
42616;SDS011;28250;52.320;0.360;2024-03-02T10:21:54;5.35;;;1.23;;
42616;SDS011;28250;52.320;0.360;2024-03-02T10:24:21;3.03;;;1.00;;
42616;SDS011;28250;52.320;0.360;2024-03-02T10:26:48;8.23;;;1.73;;
42616;SDS011;28250;52.320;0.360;2024-03-02T10:29:15;9.85;;;0.95;;
42616;SDS011;28250;52.320;0.360;2024-03-02T10:31:43;4.57;;;1.17;;
42616;SDS011;28250;52.320;0.360;2024-03-02T10:34:11;5.18;;;0.88;;
42616;SDS011;28250;52.320;0.360;2024-03-02T10:36:40;6.45;;;0.75;;
42616;SDS011;28250;52.320;0.360;2024-03-02T10:39:09;2.90;;;1.15;;
42616;SDS011;28250;52.320;0.360;2024-03-02T10:41:36;7.45;;;1.40;;
42616;SDS011;28250;52.320;0.360;2024-03-02T10:44:06;5.43;;;1.42;;
42616;SDS011;28250;52.320;0.360;2024-03-02T10:46:36;4.85;;;1.60;;
42616;SDS011;28250;52.320;0.360;2024-03-02T10:49:04;4.40;;;0.90;;
42616;SDS011;28250;52.320;0.360;2024-03-02T10:51:50;11.11;;;1.75;;
42616;SDS011;28250;52.320;0.360;2024-03-02T10:54:17;6.60;;;1.60;;
42616;SDS011;28250;52.320;0.360;2024-03-02T10:56:51;8.25;;;1.63;;
42616;SDS011;28250;52.320;0.360;2024-03-02T10:59:36;6.00;;;1.02;;
42616;SDS011;28250;52.320;0.360;2024-03-02T11:02:15;4.88;;;1.10;;
42616;SDS011;28250;52.320;0.360;2024-03-02T11:07:10;4.82;;;0.88;;
42616;SDS011;28250;52.320;0.360;2024-03-02T11:12:23;4.13;;;0.90;;
42616;SDS011;28250;52.320;0.360;2024-03-02T11:14:57;4.43;;;1.35;;
42616;SDS011;28250;52.320;0.360;2024-03-02T11:17:24;7.63;;;1.30;;
42616;SDS011;28250;52.320;0.360;2024-03-02T11:19:52;5.45;;;1.08;;
42616;SDS011;28250;52.320;0.360;2024-03-02T11:22:19;6.03;;;0.90;;
42616;SDS011;28250;52.320;0.360;2024-03-02T11:24:47;5.13;;;1.00;;
42616;SDS011;28250;52.320;0.360;2024-03-02T11:27:20;9.43;;;1.20;;
42616;SDS011;28250;52.320;0.360;2024-03-02T11:33:04;6.38;;;1.23;;
42616;SDS011;28250;52.320;0.360;2024-03-02T11:35:33;6.10;;;1.67;;
42616;SDS011;28250;52.320;0.360;2024-03-02T11:38:02;2.03;;;0.77;;
42616;SDS011;28250;52.320;0.360;2024-03-02T11:40:31;2.25;;;0.77;;
42616;SDS011;28250;52.320;0.360;2024-03-02T11:42:59;3.55;;;0.77;;
42616;SDS011;28250;52.320;0.360;2024-03-02T11:45:26;1.42;;;0.80;;
42616;SDS011;28250;52.320;0.360;2024-03-02T11:47:53;1.60;;;1.05;;
42616;SDS011;28250;52.320;0.360;2024-03-02T11:50:40;1.45;;;0.43;;
42616;SDS011;28250;52.320;0.360;2024-03-02T11:53:07;1.35;;;1.02;;
42616;SDS011;28250;52.320;0.360;2024-03-02T11:55:36;1.85;;;0.60;;
42616;SDS011;28250;52.320;0.360;2024-03-02T11:58:03;1.98;;;0.45;;
42616;SDS011;28250;52.320;0.360;2024-03-02T12:00:30;3.93;;;0.80;;
42616;SDS011;28250;52.320;0.360;2024-03-02T12:03:05;2.63;;;0.60;;
42616;SDS011;28250;52.320;0.360;2024-03-02T12:05:35;2.55;;;0.50;;
42616;SDS011;28250;52.320;0.360;2024-03-02T12:08:03;1.58;;;0.40;;
42616;SDS011;28250;52.320;0.360;2024-03-02T12:10:32;1.40;;;0.50;;
42616;SDS011;28250;52.320;0.360;2024-03-02T12:13:01;1.58;;;0.50;;
42616;SDS011;28250;52.320;0.360;2024-03-02T12:15:30;3.25;;;0.60;;
42616;SDS011;28250;52.320;0.360;2024-03-02T12:18:00;3.35;;;0.50;;
42616;SDS011;28250;52.320;0.360;2024-03-02T12:20:27;2.80;;;0.60;;
42616;SDS011;28250;52.320;0.360;2024-03-02T12:22:56;3.55;;;0.50;;
42616;SDS011;28250;52.320;0.360;2024-03-02T12:25:25;1.40;;;0.28;;
42616;SDS011;28250;52.320;0.360;2024-03-02T12:30:21;1.33;;;0.25;;
42616;SDS011;28250;52.320;0.360;2024-03-02T12:32:49;1.23;;;0.50;;
42616;SDS011;28250;52.320;0.360;2024-03-02T12:35:15;4.93;;;0.50;;
42616;SDS011;28250;52.320;0.360;2024-03-02T12:37:44;3.10;;;0.63;;
42616;SDS011;28250;52.320;0.360;2024-03-02T12:40:15;3.22;;;0.77;;
42616;SDS011;28250;52.320;0.360;2024-03-02T12:42:45;1.27;;;0.50;;
42616;SDS011;28250;52.320;0.360;2024-03-02T12:45:12;3.28;;;0.60;;
42616;SDS011;28250;52.320;0.360;2024-03-02T12:47:40;1.30;;;0.40;;
42616;SDS011;28250;52.320;0.360;2024-03-02T12:50:08;3.35;;;0.77;;
42616;SDS011;28250;52.320;0.360;2024-03-02T12:52:35;1.48;;;0.50;;
42616;SDS011;28250;52.320;0.360;2024-03-02T12:55:03;1.50;;;0.50;;
42616;SDS011;28250;52.320;0.360;2024-03-02T12:57:31;2.28;;;0.63;;
42616;SDS011;28250;52.320;0.360;2024-03-02T12:59:59;4.35;;;0.50;;
42616;SDS011;28250;52.320;0.360;2024-03-02T13:02:34;2.25;;;0.57;;
42616;SDS011;28250;52.320;0.360;2024-03-02T13:05:06;1.13;;;0.40;;
42616;SDS011;28250;52.320;0.360;2024-03-02T13:07:36;2.72;;;0.57;;
42616;SDS011;28250;52.320;0.360;2024-03-02T13:10:04;1.35;;;0.50;;
42616;SDS011;28250;52.320;0.360;2024-03-02T13:12:34;3.03;;;0.45;;
42616;SDS011;28250;52.320;0.360;2024-03-02T13:15:02;3.67;;;0.57;;
42616;SDS011;28250;52.320;0.360;2024-03-02T13:17:31;1.10;;;0.45;;
42616;SDS011;28250;52.320;0.360;2024-03-02T13:20:00;2.10;;;0.40;;
42616;SDS011;28250;52.320;0.360;2024-03-02T13:22:26;2.27;;;0.30;;
42616;SDS011;28250;52.320;0.360;2024-03-02T13:24:53;1.90;;;0.20;;
42616;SDS011;28250;52.320;0.360;2024-03-02T13:27:20;2.22;;;0.20;;
42616;SDS011;28250;52.320;0.360;2024-03-02T13:29:47;2.72;;;0.20;;
42616;SDS011;28250;52.320;0.360;2024-03-02T13:34:41;1.75;;;0.20;;
42616;SDS011;28250;52.320;0.360;2024-03-02T13:37:09;0.75;;;0.20;;
42616;SDS011;28250;52.320;0.360;2024-03-02T13:39:35;0.70;;;0.20;;
42616;SDS011;28250;52.320;0.360;2024-03-02T13:42:07;0.73;;;0.10;;
42616;SDS011;28250;52.320;0.360;2024-03-02T13:44:35;1.27;;;0.20;;
42616;SDS011;28250;52.320;0.360;2024-03-02T13:49:30;0.35;;;0.15;;
42616;SDS011;28250;52.320;0.360;2024-03-02T13:52:03;2.20;;;0.25;;
42616;SDS011;28250;52.320;0.360;2024-03-02T13:54:37;0.73;;;0.30;;
42616;SDS011;28250;52.320;0.360;2024-03-02T13:57:05;1.08;;;0.10;;
42616;SDS011;28250;52.320;0.360;2024-03-02T13:59:32;0.47;;;0.20;;
42616;SDS011;28250;52.320;0.360;2024-03-02T14:02:01;0.10;;;0.10;;
42616;SDS011;28250;52.320;0.360;2024-03-02T14:04:30;0.52;;;0.20;;
42616;SDS011;28250;52.320;0.360;2024-03-02T14:06:59;0.52;;;0.20;;
42616;SDS011;28250;52.320;0.360;2024-03-02T14:09:26;1.77;;;0.30;;
42616;SDS011;28250;52.320;0.360;2024-03-02T14:11:53;0.20;;;0.20;;
42616;SDS011;28250;52.320;0.360;2024-03-02T14:14:21;1.60;;;0.22;;
42616;SDS011;28250;52.320;0.360;2024-03-02T14:16:47;0.50;;;0.20;;
42616;SDS011;28250;52.320;0.360;2024-03-02T14:19:14;0.30;;;0.30;;
42616;SDS011;28250;52.320;0.360;2024-03-02T14:21:40;0.65;;;0.38;;
42616;SDS011;28250;52.320;0.360;2024-03-02T14:24:06;1.50;;;0.30;;
42616;SDS011;28250;52.320;0.360;2024-03-02T14:26:33;0.70;;;0.40;;
42616;SDS011;28250;52.320;0.360;2024-03-02T14:29:00;0.28;;;0.28;;
42616;SDS011;28250;52.320;0.360;2024-03-02T14:31:27;0.50;;;0.40;;
42616;SDS011;28250;52.320;0.360;2024-03-02T14:33:54;3.28;;;0.30;;
42616;SDS011;28250;52.320;0.360;2024-03-02T14:36:21;0.68;;;0.30;;
42616;SDS011;28250;52.320;0.360;2024-03-02T14:38:47;0.98;;;0.30;;
42616;SDS011;28250;52.320;0.360;2024-03-02T14:41:14;1.42;;;0.20;;
42616;SDS011;28250;52.320;0.360;2024-03-02T14:43:41;0.20;;;0.20;;
42616;SDS011;28250;52.320;0.360;2024-03-02T14:46:07;0.50;;;0.30;;
42616;SDS011;28250;52.320;0.360;2024-03-02T14:48:35;0.95;;;0.30;;
42616;SDS011;28250;52.320;0.360;2024-03-02T14:51:02;0.20;;;0.20;;
42616;SDS011;28250;52.320;0.360;2024-03-02T14:53:29;0.65;;;0.55;;
42616;SDS011;28250;52.320;0.360;2024-03-02T14:55:55;0.25;;;0.25;;
42616;SDS011;28250;52.320;0.360;2024-03-02T14:58:22;0.30;;;0.20;;
42616;SDS011;28250;52.320;0.360;2024-03-02T15:00:49;1.92;;;0.40;;
42616;SDS011;28250;52.320;0.360;2024-03-02T15:03:16;0.45;;;0.30;;
42616;SDS011;28250;52.320;0.360;2024-03-02T15:05:42;2.03;;;0.30;;
42616;SDS011;28250;52.320;0.360;2024-03-02T15:08:09;0.52;;;0.30;;
42616;SDS011;28250;52.320;0.360;2024-03-02T15:10:35;1.33;;;0.20;;
42616;SDS011;28250;52.320;0.360;2024-03-02T15:13:02;0.22;;;0.20;;
42616;SDS011;28250;52.320;0.360;2024-03-02T15:15:29;1.67;;;1.27;;
42616;SDS011;28250;52.320;0.360;2024-03-02T15:17:55;1.95;;;0.60;;
42616;SDS011;28250;52.320;0.360;2024-03-02T15:20:21;4.05;;;0.50;;
42616;SDS011;28250;52.320;0.360;2024-03-02T15:22:48;0.52;;;0.40;;
42616;SDS011;28250;52.320;0.360;2024-03-02T15:25:14;1.10;;;0.30;;
42616;SDS011;28250;52.320;0.360;2024-03-02T15:27:42;0.90;;;0.30;;
42616;SDS011;28250;52.320;0.360;2024-03-02T15:30:08;3.33;;;1.25;;
42616;SDS011;28250;52.320;0.360;2024-03-02T15:32:35;0.63;;;0.40;;